Time;durP1;ratioP1;P1;durP2;ratioP2;P2;SDS_P1;SDS_P2;PMS_P1;PMS_P2;Temp;Humidity;BMP_temperature;BMP_pressure;BME280_temperature;BME280_humidity;BME280_pressure;Samples;Min_cycle;Max_cycle;Signal;HPM_P1;HPM_P2
2024/03/25 00:00:11;;;;;;;;;;;23.40;48.60;;;;;;5074483;28;20598;-66
2024/03/25 00:02:41;;;;;;;4.78;2.50;;;23.40;48.50;;;;;;5076316;28;19951;-65
2024/03/25 00:05:10;;;;;;;4.40;2.38;;;23.40;48.50;;;;;;5074329;28;20476;-65
2024/03/25 00:07:37;;;;;;;4.95;2.60;;;23.40;48.60;;;;;;5073882;28;20028;-65
2024/03/25 00:10:03;;;;;;;4.30;2.50;;;23.40;48.60;;;;;;5073909;28;20029;-66
2024/03/25 00:12:29;;;;;;;5.15;2.47;;;23.40;48.60;;;;;;5077643;28;20522;-66
2024/03/25 00:14:55;;;;;;;4.95;2.45;;;23.40;48.50;;;;;;5075449;28;20044;-65
2024/03/25 00:17:20;;;;;;;4.95;2.33;;;23.40;48.60;;;;;;5077722;28;20024;-66
2024/03/25 00:19:50;;;;;;;5.43;2.40;;;23.40;48.60;;;;;;5067595;28;20028;-66
2024/03/25 00:22:17;;;;;;;4.10;2.60;;;23.40;48.50;;;;;;5075863;28;20059;-66
2024/03/25 00:24:42;;;;;;;5.22;2.50;;;23.40;48.60;;;;;;5074901;28;20065;-66
2024/03/25 00:27:08;;;;;;;6.28;2.88;;;23.40;48.50;;;;;;5073066;28;20107;-66
2024/03/25 00:29:33;;;;;;;4.13;2.30;;;23.40;48.50;;;;;;5072542;28;20099;-65
2024/03/25 00:31:59;;;;;;;4.30;2.25;;;23.50;48.50;;;;;;5074923;28;20027;-66
2024/03/25 00:34:24;;;;;;;4.65;2.60;;;23.40;48.50;;;;;;5072558;28;20210;-66
2024/03/25 00:36:50;;;;;;;9.07;2.83;;;23.40;48.50;;;;;;5074820;28;20392;-64
2024/03/25 00:39:16;;;;;;;5.50;2.70;;;23.40;48.50;;;;;;5075103;28;20146;-65
2024/03/25 00:41:41;;;;;;;4.28;2.40;;;23.40;48.50;;;;;;5073732;28;20033;-64
2024/03/25 00:44:07;;;;;;;4.55;2.40;;;23.40;48.50;;;;;;5076234;28;20434;-64
2024/03/25 00:46:33;;;;;;;4.47;2.60;;;23.40;48.50;;;;;;5077368;28;20025;-65
2024/03/25 00:48:58;;;;;;;4.30;2.10;;;23.40;48.50;;;;;;5078898;28;20047;-65
2024/03/25 00:51:24;;;;;;;5.07;2.20;;;23.40;48.40;;;;;;5076317;28;20480;-64
2024/03/25 00:53:50;;;;;;;4.95;2.50;;;23.50;48.50;;;;;;5075012;28;20058;-65
2024/03/25 00:56:16;;;;;;;4.32;2.60;;;23.50;48.50;;;;;;5075800;28;20525;-69
2024/03/25 00:58:41;;;;;;;4.18;2.53;;;23.50;48.50;;;;;;5081544;28;20108;-69
2024/03/25 01:01:07;;;;;;;3.92;2.20;;;23.50;48.40;;;;;;5073924;28;20049;-69
2024/03/25 01:03:33;;;;;;;5.47;2.50;;;23.40;48.40;;;;;;5083402;28;20016;-69
2024/03/25 01:05:59;;;;;;;4.90;2.65;;;23.50;48.40;;;;;;5085087;28;20025;-68
2024/03/25 01:08:25;;;;;;;4.18;2.05;;;23.40;48.30;;;;;;5079871;28;20036;-69
2024/03/25 01:10:50;;;;;;;5.07;2.67;;;23.50;48.40;;;;;;5079590;28;20044;-68
2024/03/25 01:13:16;;;;;;;4.07;2.10;;;23.50;48.40;;;;;;5084573;28;20052;-69
2024/03/25 01:15:42;;;;;;;4.90;2.40;;;23.40;48.40;;;;;;5079501;28;20072;-69
2024/03/25 01:18:08;;;;;;;5.40;2.28;;;23.50;48.30;;;;;;5081576;28;20080;-69
2024/03/25 01:20:33;;;;;;;3.97;2.25;;;23.50;48.40;;;;;;5080473;28;20028;-69
2024/03/25 01:22:59;;;;;;;3.50;1.90;;;23.50;48.40;;;;;;5076772;28;20480;-68
2024/03/25 01:25:25;;;;;;;3.97;2.20;;;23.40;48.30;;;;;;5080217;28;20038;-69
2024/03/25 01:27:51;;;;;;;3.70;2.22;;;23.40;48.30;;;;;;5076800;28;20475;-68
2024/03/25 01:30:18;;;;;;;4.80;2.13;;;23.50;48.40;;;;;;5082129;28;20020;-68
2024/03/25 01:32:46;;;;;;;4.72;2.30;;;23.50;48.90;;;;;;5082914;28;20080;-68
2024/03/25 01:35:12;;;;;;;4.13;1.90;;;23.40;48.30;;;;;;5082361;28;20052;-69
2024/03/25 01:37:38;;;;;;;3.60;1.80;;;23.50;48.30;;;;;;5079896;28;20016;-68
2024/03/25 01:40:04;;;;;;;4.25;2.15;;;23.40;48.30;;;;;;5077788;28;20971;-69
2024/03/25 01:42:30;;;;;;;3.83;1.98;;;23.50;48.40;;;;;;5070013;28;20488;-69
2024/03/25 01:44:56;;;;;;;4.60;1.90;;;23.40;48.30;;;;;;5069594;28;20028;-69
2024/03/25 01:47:22;;;;;;;3.53;1.88;;;23.40;48.30;;;;;;5070251;28;20031;-69
2024/03/25 01:49:49;;;;;;;3.47;2.10;;;23.40;48.40;;;;;;5069993;28;20028;-69
2024/03/25 01:52:15;;;;;;;4.35;2.25;;;23.40;48.40;;;;;;5070190;28;20020;-69
2024/03/25 01:54:41;;;;;;;3.92;1.92;;;23.50;48.40;;;;;;5067964;28;20070;-69
2024/03/25 01:57:08;;;;;;;3.63;2.00;;;23.50;48.60;;;;;;5069879;28;20040;-65
2024/03/25 01:59:35;;;;;;;4.35;2.10;;;23.40;48.30;;;;;;5069672;28;20033;-65
2024/03/25 02:02:01;;;;;;;3.65;2.00;;;23.40;48.30;;;;;;5069800;28;20417;-65
2024/03/25 02:04:27;;;;;;;3.20;1.63;;;23.40;48.30;;;;;;5070603;28;20064;-65
2024/03/25 02:06:55;;;;;;;3.22;1.88;;;23.40;48.30;;;;;;5076813;28;20484;-65
2024/03/25 02:09:23;;;;;;;3.17;1.80;;;23.40;48.40;;;;;;5076617;28;20031;-65
2024/03/25 02:11:49;;;;;;;3.10;1.60;;;23.40;48.30;;;;;;5075367;28;20024;-65
2024/03/25 02:14:16;;;;;;;3.42;2.00;;;23.30;48.30;;;;;;5076519;28;20036;-64
2024/03/25 02:16:42;;;;;;;3.35;1.75;;;23.30;48.30;;;;;;5076209;28;20102;-66
2024/03/25 02:19:10;;;;;;;3.40;1.90;;;23.30;48.30;;;;;;5076358;28;20028;-66
2024/03/25 02:21:35;;;;;;;3.78;1.75;;;23.30;48.30;;;;;;5076266;28;20419;-65
2024/03/25 02:24:09;;;;;;;3.15;1.80;;;23.30;48.30;;;;;;5076221;28;20024;-65
2024/03/25 02:26:34;;;;;;;2.63;1.70;;;23.30;48.40;;;;;;5075659;28;20060;-65
2024/03/25 02:29:01;;;;;;;3.00;1.70;;;23.20;48.30;;;;;;5076186;28;20059;-65
2024/03/25 02:31:26;;;;;;;3.05;1.60;;;23.20;48.30;;;;;;5075287;28;20028;-65
2024/03/25 02:33:52;;;;;;;2.92;1.50;;;23.20;48.30;;;;;;5076354;28;20016;-65
2024/03/25 02:36:17;;;;;;;3.20;1.70;;;23.20;48.30;;;;;;5058306;28;20047;-64
2024/03/25 02:38:43;;;;;;;3.25;1.92;;;23.20;48.30;;;;;;5075951;28;20056;-65
2024/03/25 02:41:09;;;;;;;3.80;1.73;;;23.20;48.40;;;;;;5075250;28;20024;-65
2024/03/25 02:43:35;;;;;;;2.78;1.60;;;23.10;48.40;;;;;;5076326;28;20029;-65
2024/03/25 02:46:01;;;;;;;3.03;1.55;;;23.10;48.40;;;;;;5075359;28;20449;-65
2024/03/25 02:48:26;;;;;;;3.15;2.08;;;23.10;48.40;;;;;;5075869;28;20056;-65
2024/03/25 02:50:52;;;;;;;3.17;1.50;;;23.00;48.40;;;;;;5076115;28;20494;-64
2024/03/25 02:53:18;;;;;;;2.72;1.42;;;23.00;48.40;;;;;;5076042;28;20028;-65
2024/03/25 02:55:43;;;;;;;2.75;1.60;;;23.00;48.40;;;;;;5074893;28;20020;-65
2024/03/25 02:58:09;;;;;;;2.35;1.30;;;23.00;48.40;;;;;;5075929;28;20064;-65
2024/03/25 03:00:34;;;;;;;2.60;1.48;;;23.00;48.50;;;;;;5056818;28;20383;-65
2024/03/25 03:03:00;;;;;;;2.05;1.27;;;23.00;48.50;;;;;;5076075;28;20032;-65
2024/03/25 03:05:25;;;;;;;2.92;1.50;;;22.90;48.50;;;;;;5075950;28;20428;-64
2024/03/25 03:07:51;;;;;;;2.42;1.30;;;22.90;48.50;;;;;;5076110;28;20131;-68
2024/03/25 03:10:17;;;;;;;2.40;1.35;;;22.80;48.50;;;;;;5074857;28;20483;-68
2024/03/25 03:12:42;;;;;;;2.53;1.30;;;22.90;48.50;;;;;;5075989;28;20024;-68
2024/03/25 03:15:08;;;;;;;2.97;1.58;;;22.80;48.50;;;;;;5075836;28;20070;-69
2024/03/25 03:17:34;;;;;;;2.50;1.23;;;22.80;48.50;;;;;;5062531;28;20101;-65
2024/03/25 03:19:59;;;;;;;2.60;1.30;;;22.80;48.50;;;;;;5072350;28;20036;-65
2024/03/25 03:22:25;;;;;;;1.95;1.17;;;22.70;49.00;;;;;;5072312;28;20039;-64
2024/03/25 03:24:50;;;;;;;1.95;1.17;;;22.80;49.10;;;;;;5072581;28;20345;-65
2024/03/25 03:27:16;;;;;;;2.10;1.30;;;22.70;48.60;;;;;;5071675;28;20021;-64
2024/03/25 03:29:42;;;;;;;2.72;1.30;;;22.70;48.60;;;;;;5072259;28;20533;-65
2024/03/25 03:32:08;;;;;;;2.38;1.20;;;22.70;48.60;;;;;;5072331;28;20436;-65
2024/03/25 03:34:33;;;;;;;2.65;1.48;;;22.70;48.60;;;;;;5072408;28;20082;-65
2024/03/25 03:36:59;;;;;;;2.35;1.40;;;22.70;48.60;;;;;;5072374;28;20337;-64
2024/03/25 03:39:25;;;;;;;2.53;1.20;;;22.70;48.70;;;;;;5072286;28;20032;-65
2024/03/25 03:41:50;;;;;;;2.03;1.40;;;22.70;48.70;;;;;;5071195;28;20027;-64
2024/03/25 03:44:16;;;;;;;2.20;1.20;;;22.60;48.70;;;;;;5072112;28;20044;-65
2024/03/25 03:46:41;;;;;;;2.05;1.25;;;22.60;49.20;;;;;;5071975;28;20025;-65
2024/03/25 03:49:07;;;;;;;2.65;1.30;;;22.60;48.70;;;;;;5072596;28;20106;-65
2024/03/25 03:51:33;;;;;;;2.30;1.27;;;22.60;48.70;;;;;;5071098;28;20029;-65
2024/03/25 03:53:58;;;;;;;1.92;1.10;;;22.60;48.80;;;;;;5072085;28;20016;-65
2024/03/25 03:56:24;;;;;;;2.20;1.20;;;22.60;48.70;;;;;;5071257;28;20082;-64
2024/03/25 03:58:49;;;;;;;1.95;1.27;;;22.50;48.70;;;;;;5061428;28;20495;-65
2024/03/25 04:01:16;;;;;;;1.88;1.10;;;22.50;48.80;;;;;;5071711;28;20382;-65
2024/03/25 04:03:42;;;;;;;2.10;1.27;;;22.50;48.80;;;;;;5072074;28;20099;-64
2024/03/25 04:06:10;;;;;;;2.13;1.25;;;22.50;48.80;;;;;;5071734;28;20107;-65
2024/03/25 04:08:35;;;;;;;1.77;1.15;;;22.50;48.80;;;;;;5071777;28;20055;-65
2024/03/25 04:11:02;;;;;;;2.50;1.40;;;22.40;49.30;;;;;;5070895;28;20016;-64
2024/03/25 04:13:27;;;;;;;1.48;1.00;;;22.40;48.80;;;;;;5071742;28;20040;-64
2024/03/25 04:15:53;;;;;;;2.10;1.08;;;22.40;48.80;;;;;;5071402;28;20311;-65
2024/03/25 04:18:19;;;;;;;2.53;1.10;;;22.40;48.80;;;;;;5071480;28;20032;-66
2024/03/25 04:20:44;;;;;;;2.20;1.20;;;22.40;48.90;;;;;;5071447;28;20479;-66
2024/03/25 04:23:10;;;;;;;1.90;1.15;;;22.40;48.90;;;;;;5060811;28;20074;-66
2024/03/25 04:25:38;;;;;;;2.30;1.38;;;22.40;48.90;;;;;;5070738;28;20376;-67
2024/03/25 04:28:05;;;;;;;1.88;1.10;;;22.40;48.90;;;;;;5070147;28;20017;-68
2024/03/25 04:30:32;;;;;;;1.88;0.90;;;22.40;48.90;;;;;;5071072;28;20579;-68
2024/03/25 04:32:58;;;;;;;2.00;1.10;;;22.40;49.00;;;;;;5053039;28;20052;-69
2024/03/25 04:35:23;;;;;;;2.45;1.20;;;22.30;49.00;;;;;;5062731;28;20025;-68
2024/03/25 04:37:49;;;;;;;2.22;1.20;;;22.30;49.00;;;;;;5071309;28;20112;-68
2024/03/25 04:40:14;;;;;;;1.88;1.23;;;22.30;49.00;;;;;;5052765;28;20033;-68
2024/03/25 04:42:40;;;;;;;2.05;1.10;;;22.30;49.00;;;;;;5070188;28;20028;-68
2024/03/25 04:45:06;;;;;;;1.35;0.85;;;22.30;49.00;;;;;;5052637;28;20032;-68
2024/03/25 04:47:32;;;;;;;1.38;0.98;;;22.30;49.00;;;;;;5070633;28;20507;-69
2024/03/25 04:49:57;;;;;;;2.13;1.20;;;22.30;49.10;;;;;;5070954;28;20033;-68
2024/03/25 04:52:24;;;;;;;1.83;1.13;;;22.30;49.10;;;;;;5070949;28;20409;-68
2024/03/25 04:54:49;;;;;;;2.10;1.10;;;22.20;49.10;;;;;;5070911;28;20123;-68
2024/03/25 04:57:15;;;;;;;2.25;1.15;;;22.20;49.10;;;;;;5069669;28;20174;-68
2024/03/25 04:59:41;;;;;;;1.52;0.93;;;22.20;49.10;;;;;;5062338;28;20089;-68
2024/03/25 05:02:06;;;;;;;1.38;0.90;;;22.20;49.10;;;;;;5070485;28;20095;-69
2024/03/25 05:04:32;;;;;;;1.70;1.00;;;22.20;49.20;;;;;;5070632;28;20024;-69
2024/03/25 05:06:58;;;;;;;2.00;1.08;;;22.20;49.20;;;;;;5052532;28;20024;-68
2024/03/25 05:09:23;;;;;;;1.10;0.90;;;22.20;49.20;;;;;;5070422;28;20499;-68
2024/03/25 05:11:49;;;;;;;1.35;0.82;;;22.20;49.20;;;;;;5069311;28;20380;-68
2024/03/25 05:14:14;;;;;;;1.02;0.80;;;22.10;49.20;;;;;;5070368;28;20097;-68
2024/03/25 05:16:40;;;;;;;2.17;1.13;;;22.10;49.20;;;;;;5070086;28;20055;-68
2024/03/25 05:19:06;;;;;;;1.48;0.98;;;22.10;49.20;;;;;;5059865;28;20169;-68
2024/03/25 05:21:32;;;;;;;1.50;0.90;;;22.10;49.30;;;;;;5070469;28;20400;-69
2024/03/25 05:23:58;;;;;;;1.40;0.90;;;22.10;49.30;;;;;;5070361;28;20365;-68
2024/03/25 05:26:24;;;;;;;1.58;1.00;;;22.10;49.30;;;;;;5069367;28;20078;-65
2024/03/25 05:28:53;;;;;;;1.60;0.98;;;22.10;49.30;;;;;;5070285;28;20488;-64
2024/03/25 05:31:19;;;;;;;1.55;0.90;;;22.10;49.30;;;;;;5070187;28;20035;-65
2024/03/25 05:33:45;;;;;;;1.83;1.00;;;22.00;49.30;;;;;;5069950;28;20036;-65
2024/03/25 05:36:10;;;;;;;1.20;0.80;;;22.10;49.30;;;;;;5070289;28;20040;-65
2024/03/25 05:38:36;;;;;;;1.00;0.80;;;22.00;49.30;;;;;;5070272;28;20507;-65
2024/03/25 05:41:01;;;;;;;1.58;0.98;;;22.00;49.40;;;;;;5069740;28;20077;-65
2024/03/25 05:43:27;;;;;;;1.33;0.98;;;22.00;49.40;;;;;;5069314;28;20099;-65
2024/03/25 05:45:53;;;;;;;1.27;0.80;;;22.00;49.40;;;;;;5070093;28;20048;-65
2024/03/25 05:48:20;;;;;;;1.85;0.88;;;22.00;49.50;;;;;;5069182;28;20476;-65
2024/03/25 05:50:45;;;;;;;1.60;0.80;;;21.90;49.50;;;;;;5070099;28;20177;-65
2024/03/25 05:53:11;;;;;;;1.42;0.88;;;21.90;49.50;;;;;;5069896;28;20531;-64
2024/03/25 05:55:37;;;;;;;1.35;0.80;;;21.90;49.50;;;;;;5069959;28;20036;-65
2024/03/25 05:58:03;;;;;;;1.52;1.08;;;21.90;49.50;;;;;;5068775;28;20028;-66
2024/03/25 06:00:30;;;;;;;1.50;0.90;;;21.90;49.50;;;;;;5069952;28;20032;-65
2024/03/25 06:02:56;;;;;;;1.83;1.05;;;21.90;49.60;;;;;;5069444;28;20024;-65
2024/03/25 06:05:22;;;;;;;0.85;0.70;;;21.90;49.60;;;;;;5069871;28;20608;-64
2024/03/25 06:07:48;;;;;;;1.50;0.90;;;21.90;49.60;;;;;;5069573;28;20025;-64
2024/03/25 06:10:13;;;;;;;1.35;0.80;;;21.90;49.60;;;;;;5069659;28;20325;-64
2024/03/25 06:12:39;;;;;;;1.70;1.00;;;21.90;49.60;;;;;;5068337;28;20031;-65
2024/03/25 06:15:06;;;;;;;1.52;0.82;;;21.90;49.60;;;;;;5069736;28;20060;-65
2024/03/25 06:17:31;;;;;;;1.63;0.90;;;21.90;49.70;;;;;;5069285;28;20027;-66
2024/03/25 06:19:57;;;;;;;1.48;0.82;;;21.90;49.70;;;;;;5069827;28;20033;-65
2024/03/25 06:22:23;;;;;;;1.15;0.80;;;21.90;49.70;;;;;;5069699;28;20495;-64
2024/03/25 06:24:50;;;;;;;1.98;0.90;;;21.90;49.70;;;;;;5069627;28;20024;-64
2024/03/25 06:27:16;;;;;;;0.93;0.70;;;21.80;49.70;;;;;;5068420;28;20020;-65
2024/03/25 06:29:42;;;;;;;1.50;1.00;;;21.80;49.60;;;;;;5069705;28;20021;-64
2024/03/25 06:34:53;;;;;;;1.08;0.80;;;21.80;49.60;;;;;;5069633;28;20113;-64
2024/03/25 06:37:18;;;;;;;1.17;0.80;;;21.80;49.70;;;;;;5069611;28;20074;-69
2024/03/25 06:39:44;;;;;;;1.13;0.80;;;21.80;49.70;;;;;;5069485;28;20021;-68
2024/03/25 06:42:09;;;;;;;1.15;0.70;;;21.80;49.70;;;;;;5068623;28;20040;-68
2024/03/25 06:44:35;;;;;;;1.05;0.70;;;21.80;49.70;;;;;;5069440;28;20039;-68
2024/03/25 06:47:01;;;;;;;1.42;0.77;;;21.80;49.70;;;;;;5069645;28;20028;-65
2024/03/25 06:49:26;;;;;;;1.02;0.70;;;21.80;49.70;;;;;;5069101;28;20175;-64
2024/03/25 06:51:52;;;;;;;1.45;0.90;;;21.70;49.60;;;;;;5070494;28;20021;-65
2024/03/25 06:54:18;;;;;;;2.08;0.80;;;21.70;49.60;;;;;;5073303;28;20104;-64
2024/03/25 06:56:43;;;;;;;1.33;0.77;;;21.70;49.60;;;;;;5072866;28;20484;-65
2024/03/25 06:59:09;;;;;;;1.00;0.75;;;21.70;49.60;;;;;;5072342;28;20041;-65
2024/03/25 07:01:34;;;;;;;1.40;0.90;;;21.70;49.70;;;;;;5073171;28;20043;-64
2024/03/25 07:04:01;;;;;;;1.75;0.80;;;21.70;49.70;;;;;;5072583;28;20028;-64
2024/03/25 07:06:26;;;;;;;0.60;0.60;;;21.70;49.80;;;;;;5073035;28;20115;-65
2024/03/25 07:08:53;;;;;;;0.77;0.63;;;21.70;49.80;;;;;;5073034;28;20100;-63
2024/03/25 07:11:19;;;;;;;1.30;0.70;;;21.70;49.80;;;;;;5072897;28;20480;-64
2024/03/25 07:13:44;;;;;;;1.48;0.82;;;21.70;49.80;;;;;;5071761;28;20209;-65
2024/03/25 07:16:10;;;;;;;1.45;0.80;;;21.70;49.80;;;;;;5054550;28;20047;-64
2024/03/25 07:18:36;;;;;;;1.15;0.77;;;21.70;49.90;;;;;;5072753;28;20078;-65
2024/03/25 07:21:01;;;;;;;1.23;0.88;;;21.70;49.90;;;;;;5072752;28;20028;-64
2024/03/25 07:23:27;;;;;;;1.20;0.90;;;21.70;49.90;;;;;;5072747;28;20842;-64
2024/03/25 07:25:52;;;;;;;1.63;0.80;;;21.60;49.80;;;;;;5072607;28;20185;-65
2024/03/25 07:28:19;;;;;;;1.25;0.68;;;21.60;50.40;;;;;;5053131;28;20020;-65
2024/03/25 07:30:44;;;;;;;1.17;0.70;;;21.60;49.80;;;;;;5071785;28;20409;-64
2024/03/25 07:33:10;;;;;;;1.50;0.88;;;21.60;49.90;;;;;;5071687;28;20213;-64
2024/03/25 07:35:36;;;;;;;1.30;0.75;;;21.60;49.80;;;;;;5072616;28;20031;-64
2024/03/25 07:38:03;;;;;;;1.10;0.80;;;21.60;49.90;;;;;;5072382;28;20480;-64
2024/03/25 07:40:28;;;;;;;1.13;0.80;;;21.60;49.80;;;;;;5054186;28;20489;-65
2024/03/25 07:42:54;;;;;;;1.10;0.70;;;21.60;49.80;;;;;;5071426;28;20040;-64
2024/03/25 07:45:19;;;;;;;1.15;0.77;;;21.60;49.80;;;;;;5072222;28;20060;-64
2024/03/25 07:47:46;;;;;;;1.02;0.70;;;21.60;49.80;;;;;;5071846;28;20025;-65
2024/03/25 07:50:11;;;;;;;1.75;0.70;;;21.60;49.80;;;;;;5072192;28;20073;-65
2024/03/25 07:52:40;;;;;;;0.93;0.70;;;21.60;49.80;;;;;;5072225;28;20028;-65
2024/03/25 07:55:09;;;;;;;0.73;0.55;;;21.60;49.80;;;;;;5072191;28;20503;-65
2024/03/25 07:57:35;;;;;;;1.23;0.70;;;21.60;49.80;;;;;;5071069;28;20073;-64
2024/03/25 08:00:01;;;;;;;1.15;0.70;;;21.60;49.80;;;;;;5072158;28;20029;-64
2024/03/25 08:02:27;;;;;;;0.95;0.80;;;21.60;49.80;;;;;;5071692;28;20115;-65
2024/03/25 08:04:52;;;;;;;1.10;0.70;;;21.60;49.80;;;;;;5071428;28;20389;-64
2024/03/25 08:07:18;;;;;;;1.30;0.80;;;21.60;49.80;;;;;;5071910;28;20480;-65
2024/03/25 08:09:43;;;;;;;0.90;0.60;;;21.60;49.80;;;;;;5071731;28;20093;-64
2024/03/25 08:12:09;;;;;;;0.82;0.60;;;21.60;49.80;;;;;;5071766;28;20021;-65
2024/03/25 08:14:35;;;;;;;0.80;0.70;;;21.50;49.70;;;;;;5070694;28;20127;-64
2024/03/25 08:17:00;;;;;;;1.02;0.65;;;21.50;49.70;;;;;;5071702;28;20033;-65
2024/03/25 08:19:26;;;;;;;1.52;0.98;;;21.50;49.70;;;;;;5071471;28;20039;-64
2024/03/25 08:21:52;;;;;;;1.52;0.90;;;21.50;49.70;;;;;;5071740;28;20671;-65
2024/03/25 08:24:17;;;;;;;1.38;1.00;;;21.50;49.70;;;;;;5071514;28;20028;-64
2024/03/25 08:26:43;;;;;;;1.45;0.80;;;21.50;49.70;;;;;;5071487;28;20039;-64
2024/03/25 08:29:08;;;;;;;1.15;0.80;;;21.50;49.70;;;;;;5070316;28;20028;-65
2024/03/25 08:31:34;;;;;;;1.10;0.80;;;21.50;49.70;;;;;;5071785;28;20476;-64
2024/03/25 08:33:59;;;;;;;1.75;0.80;;;21.50;49.70;;;;;;5071057;28;20029;-64
2024/03/25 08:36:25;;;;;;;1.80;0.90;;;21.60;49.80;;;;;;5071384;28;20033;-65
2024/03/25 08:38:51;;;;;;;1.48;0.90;;;21.50;49.70;;;;;;5070996;28;20107;-65
2024/03/25 08:41:16;;;;;;;1.67;1.00;;;21.50;49.70;;;;;;5071216;28;20484;-65
2024/03/25 08:43:42;;;;;;;1.60;0.80;;;21.50;49.70;;;;;;5069263;28;20028;-64
2024/03/25 08:46:07;;;;;;;1.33;0.80;;;21.60;49.80;;;;;;5070938;28;20358;-65
2024/03/25 08:48:33;;;;;;;3.30;0.98;;;21.50;49.70;;;;;;5070782;28;20032;-65
2024/03/25 08:50:59;;;;;;;1.02;0.70;;;21.50;49.70;;;;;;5053037;28;20024;-65
2024/03/25 08:53:24;;;;;;;1.88;0.82;;;21.50;49.70;;;;;;5070887;28;20078;-65
2024/03/25 08:55:50;;;;;;;2.20;0.93;;;21.50;49.70;;;;;;5070974;28;20535;-64
2024/03/25 08:58:16;;;;;;;2.65;0.93;;;21.50;49.70;;;;;;5069998;28;20020;-68
2024/03/25 09:00:44;;;;;;;1.33;0.90;;;21.50;49.70;;;;;;5061718;28;20063;-67
2024/03/25 09:03:10;;;;;;;1.20;0.80;;;21.50;49.70;;;;;;5070161;28;20107;-67
2024/03/25 09:05:38;;;;;;;1.42;0.80;;;21.50;49.70;;;;;;5070623;28;20195;-67
2024/03/25 09:08:11;;;;;;;2.10;0.90;;;21.50;49.70;;;;;;5070460;28;20131;-64
2024/03/25 09:13:23;;;;;;;1.63;0.90;;;21.50;49.70;;;;;;5068877;28;20104;-64
2024/03/25 09:15:48;;;;;;;2.25;1.00;;;21.50;49.60;;;;;;5069643;28;20119;-65
2024/03/25 09:18:14;;;;;;;2.30;1.20;;;21.50;49.60;;;;;;5060537;28;20123;-64
2024/03/25 09:20:40;;;;;;;2.47;1.00;;;21.50;49.60;;;;;;5052251;28;20064;-64
2024/03/25 09:23:05;;;;;;;2.05;1.00;;;21.50;49.60;;;;;;5070389;28;20498;-64
2024/03/25 09:25:31;;;;;;;2.25;1.00;;;21.50;49.60;;;;;;5070178;28;20036;-65
2024/03/25 09:27:56;;;;;;;2.42;1.00;;;21.50;49.50;;;;;;5069301;28;20028;-64
2024/03/25 09:30:22;;;;;;;2.22;1.00;;;21.60;49.60;;;;;;5069918;28;20098;-65
2024/03/25 09:32:47;;;;;;;1.67;0.90;;;21.50;49.50;;;;;;5069262;28;20024;-65
2024/03/25 09:35:13;;;;;;;2.08;0.90;;;21.50;49.50;;;;;;5069742;28;20029;-64
2024/03/25 09:37:39;;;;;;;2.35;1.13;;;21.60;49.60;;;;;;5058097;28;20025;-64
2024/03/25 09:40:05;;;;;;;2.38;1.00;;;21.60;49.60;;;;;;5070121;28;20107;-64
2024/03/25 09:42:49;;;;;;;2.20;1.00;;;21.50;49.50;;;;;;5069159;28;20369;-64
2024/03/25 09:45:18;;;;;;;2.13;1.15;;;21.60;49.60;;;;;;5068471;28;20039;-64
2024/03/25 09:47:48;;;;;;;2.55;1.00;;;21.60;49.60;;;;;;5070103;28;20459;-65
2024/03/25 09:50:19;;;;;;;1.98;1.10;;;21.50;49.60;;;;;;5069527;28;20035;-64
2024/03/25 09:52:53;;;;;;;2.45;0.90;;;21.60;49.60;;;;;;5069732;28;20365;-65
2024/03/25 09:55:19;;;;;;;2.65;1.00;;;21.60;49.60;;;;;;5069889;28;20056;-64
2024/03/25 09:57:45;;;;;;;3.17;1.00;;;21.60;49.60;;;;;;5070020;28;20475;-64
2024/03/25 10:00:12;;;;;;;2.42;1.10;;;21.60;49.70;;;;;;5068636;28;20036;-64
2024/03/25 10:02:39;;;;;;;2.10;1.00;;;21.60;49.70;;;;;;5069802;28;20020;-64
2024/03/25 10:05:06;;;;;;;3.03;1.20;;;21.60;49.80;;;;;;5069406;28;20460;-64
2024/03/25 10:07:33;;;;;;;2.35;1.05;;;21.60;49.80;;;;;;5069923;28;20021;-64
2024/03/25 10:09:58;;;;;;;3.20;1.38;;;21.60;49.80;;;;;;5069776;28;20025;-66
2024/03/25 10:12:25;;;;;;;3.35;1.20;;;21.60;49.90;;;;;;5069700;28;20016;-64
2024/03/25 10:14:50;;;;;;;3.08;1.10;;;21.60;50.00;;;;;;5068527;28;20507;-64
2024/03/25 10:17:16;;;;;;;3.35;1.38;;;21.60;50.00;;;;;;5070078;28;20115;-65
2024/03/25 10:19:42;;;;;;;2.40;1.10;;;21.60;50.10;;;;;;5069452;28;20077;-64
2024/03/25 10:22:09;;;;;;;3.47;1.20;;;21.60;50.20;;;;;;5069736;28;20048;-65
2024/03/25 10:24:38;;;;;;;2.15;1.00;;;21.60;50.30;;;;;;5069827;28;20411;-65
2024/03/25 10:27:05;;;;;;;3.75;1.33;;;21.60;50.30;;;;;;5072776;28;20040;-65
2024/03/25 10:29:30;;;;;;;2.45;1.13;;;21.60;50.40;;;;;;5072660;28;20017;-64
2024/03/25 10:32:00;;;;;;;2.10;1.15;;;21.60;50.40;;;;;;5073696;28;20028;-65
2024/03/25 10:34:25;;;;;;;;;;;21.60;50.40;;;;;;5073842;28;20033;-64
2024/03/25 10:36:55;;;;;;;3.08;1.10;;;21.60;50.40;;;;;;5072776;28;20284;-65
2024/03/25 10:39:26;;;;;;;2.22;1.02;;;21.60;50.40;;;;;;5073310;28;20396;-64
2024/03/25 10:41:56;;;;;;;1.50;0.80;;;21.60;50.40;;;;;;5073122;28;20033;-65
2024/03/25 10:44:26;;;;;;;2.45;1.20;;;21.60;50.40;;;;;;5072416;28;20550;-65
2024/03/25 10:46:58;;;;;;;1.98;1.00;;;21.60;50.90;;;;;;5072775;28;20170;-65
2024/03/25 10:49:38;;;;;;;3.22;1.08;;;21.60;50.40;;;;;;5055046;28;20025;-64
2024/03/25 10:52:06;;;;;;;2.22;1.00;;;21.60;50.50;;;;;;5073665;28;20028;-64
2024/03/25 10:54:32;;;;;;;1.95;1.10;;;21.60;50.50;;;;;;5073341;28;20100;-65
2024/03/25 10:56:58;;;;;;;2.15;1.00;;;21.60;50.50;;;;;;5073024;28;20127;-64
2024/03/25 10:59:26;;;;;;;3.08;1.17;;;21.60;50.60;;;;;;5072319;28;20024;-65
2024/03/25 11:01:53;;;;;;;2.45;1.20;;;21.60;50.60;;;;;;5073162;28;20162;-64
2024/03/25 11:04:20;;;;;;;2.70;1.10;;;21.60;50.60;;;;;;5072358;28;20565;-65
2024/03/25 11:06:46;;;;;;;2.35;1.00;;;21.60;50.60;;;;;;5073493;28;20053;-65
2024/03/25 11:09:27;;;;;;;3.55;1.38;;;21.60;50.60;;;;;;5072878;28;20024;-64
2024/03/25 11:11:53;;;;;;;2.70;1.00;;;21.60;50.70;;;;;;5072542;28;20517;-64
2024/03/25 11:14:19;;;;;;;1.90;1.10;;;21.60;51.20;;;;;;5071703;28;20104;-65
2024/03/25 11:16:52;;;;;;;2.08;0.90;;;21.70;50.80;;;;;;5054780;28;20032;-63
2024/03/25 11:19:18;;;;;;;2.00;0.95;;;21.70;50.80;;;;;;5072159;28;20033;-65
2024/03/25 11:21:44;;;;;;;1.98;0.98;;;21.60;50.70;;;;;;5072815;28;20109;-64
2024/03/25 11:24:09;;;;;;;2.00;1.00;;;21.70;50.80;;;;;;5072646;28;20087;-65
2024/03/25 11:26:43;;;;;;;2.15;1.00;;;21.70;50.80;;;;;;5072737;28;20036;-65
2024/03/25 11:29:09;;;;;;;2.40;1.08;;;21.70;50.80;;;;;;5053011;28;20029;-65
2024/03/25 11:31:37;;;;;;;1.42;0.80;;;21.70;50.80;;;;;;5072392;28;20393;-65
2024/03/25 11:34:08;;;;;;;1.48;0.70;;;21.70;50.80;;;;;;5072589;28;20020;-65
2024/03/25 11:36:33;;;;;;;2.40;1.10;;;21.70;51.40;;;;;;5072448;28;20020;-65
2024/03/25 11:39:05;;;;;;;1.92;0.90;;;21.70;50.90;;;;;;5071640;28;20025;-65
2024/03/25 11:41:32;;;;;;;2.85;0.93;;;21.70;50.90;;;;;;5072392;28;20095;-65
2024/03/25 11:43:58;;;;;;;1.67;0.80;;;21.70;50.90;;;;;;5070624;28;20033;-66
2024/03/25 11:46:26;;;;;;;2.42;1.00;;;21.70;50.90;;;;;;5071879;28;20035;-65
2024/03/25 11:48:55;;;;;;;2.83;1.20;;;21.70;50.80;;;;;;5073332;28;20028;-65
2024/03/25 11:51:20;;;;;;;1.95;1.08;;;21.80;51.10;;;;;;5072299;28;20257;-66
2024/03/25 11:53:46;;;;;;;1.90;0.93;;;21.80;51.00;;;;;;5072311;28;20131;-65
2024/03/25 11:56:13;;;;;;;4.07;1.00;;;21.80;51.00;;;;;;5072299;28;20029;-65
2024/03/25 11:58:39;;;;;;;1.60;0.77;;;21.80;51.00;;;;;;5071407;28;20444;-62
2024/03/25 12:01:05;;;;;;;2.42;0.80;;;21.90;51.00;;;;;;5070350;28;20052;-62
2024/03/25 12:03:31;;;;;;;1.23;0.80;;;21.90;51.00;;;;;;5072114;28;20078;-62
2024/03/25 12:05:57;;;;;;;2.22;0.95;;;21.90;50.90;;;;;;5070752;28;20052;-62
2024/03/25 12:08:27;;;;;;;1.45;0.80;;;21.90;50.90;;;;;;5071877;28;20025;-63
2024/03/25 12:13:54;;;;;;;2.80;0.90;;;22.00;50.80;;;;;;4990195;28;20034;-63
2024/03/25 12:16:20;;;;;;;1.75;0.90;;;22.00;50.70;;;;;;5053122;28;20207;-62
2024/03/25 12:18:46;;;;;;;1.38;0.80;;;22.00;50.70;;;;;;5071797;28;20033;-62
2024/03/25 12:21:11;;;;;;;1.75;0.82;;;22.10;50.70;;;;;;5071558;28;20029;-62
2024/03/25 12:23:37;;;;;;;2.25;0.85;;;22.10;50.60;;;;;;5071644;28;20077;-62
2024/03/25 12:26:04;;;;;;;3.50;0.93;;;22.10;50.60;;;;;;5071434;28;20119;-62
2024/03/25 12:28:36;;;;;;;1.20;0.80;;;22.10;50.50;;;;;;5071382;28;20888;-66
2024/03/25 12:31:02;;;;;;;1.25;0.70;;;22.10;50.40;;;;;;5069928;28;20017;-64
2024/03/25 12:33:28;;;;;;;2.05;0.80;;;22.20;50.40;;;;;;5070233;28;20028;-66
2024/03/25 12:35:54;;;;;;;1.40;0.70;;;22.20;50.40;;;;;;5070945;28;20039;-66
2024/03/25 12:38:24;;;;;;;1.92;0.70;;;22.20;50.30;;;;;;5071353;28;20020;-62
2024/03/25 12:40:49;;;;;;;2.25;0.90;;;22.20;50.30;;;;;;5070763;28;20078;-62
2024/03/25 12:43:16;;;;;;;1.00;0.70;;;22.20;50.20;;;;;;5071039;28;20115;-63
2024/03/25 12:45:42;;;;;;;1.27;0.70;;;22.20;50.20;;;;;;5070041;28;20059;-64
2024/03/25 12:48:09;;;;;;;2.20;0.98;;;22.20;50.20;;;;;;5070842;28;20110;-63
2024/03/25 12:50:35;;;;;;;1.77;0.85;;;22.30;50.20;;;;;;5069576;28;20128;-62